Terminal Aerodrome Forecast
Issued by NWS Wakefield, VA

Home | Current Version | Previous Version | Text Only | Print | Product List | Glossary On
Versions: 1 2 3 4 5 6 7 8 9 10 11 12 13 14
000
FTUS41 KAKQ 020500
TAFRIC
TAF
KRIC 020536Z 0206/0306 03005KT P6SM -RA OVC006
     FM021400 03005KT P6SM SCT006 OVC025
     FM021500 06005KT P6SM OVC035
     FM022000 08004KT 5SM -RA OVC020=

USA.gov is the U.S. government's official web portal to all federal, state and local government web resources and services.